CheckWX is a tool to help pilots better visualize weather data.  It is not intended as a substitute for an official pre-flight weather briefing.

00:12:55 UTC

KELA METAR
Eagle Lake Airport
Eagle Lake, Texas, USA
Current

18 mins ago

KELA 242355Z AUTO 00000KT 10SM CLR 18/12 A2980 RMK AO2 T01800117 10223 20180
Observed
Feb-24 @ 23:55 UTC
Visibility
10 SM
Flight Rules
VFR
Cloud Levels
  • Clear skies
Temperature
18°C / 64°F
Dewpoint
12°C / 54°F
Humidity
68%
Altimeter
29.8" Hg
Pressure
1009.12 hPa
Previous

38 mins ago

KELA 242335Z AUTO 00000KT 10SM CLR 19/12 A2980 RMK AO2 T01880115
Observed
Feb-24 @ 23:35 UTC
Visibility
10 SM
Flight Rules
VFR
Cloud Levels
  • Clear skies
Temperature
19°C / 66°F
Dewpoint
12°C / 54°F
Humidity
64%
Altimeter
29.8" Hg
Pressure
1009.12 hPa
Previous

58 mins ago

KELA 242315Z AUTO 00000KT 10SM CLR 20/11 A2980 RMK AO2 T01950108
Observed
Feb-24 @ 23:15 UTC
Visibility
10 SM
Flight Rules
VFR
Cloud Levels
  • Clear skies
Temperature
20°C / 68°F
Dewpoint
11°C / 52°F
Humidity
56%
Altimeter
29.8" Hg
Pressure
1009.12 hPa